Airfield :
LOGIN :

Register | Disclaimer

   EN    FR    IT 

 










Legend :    VFR   Marginal VFR   IFR   Intensive IFR   Very Intensive IFR
Visi :
Ceiling :
>= 8 km
>= 3000ft
5 to 8 km
1000 to 3000 ft
1500m to 5 km
500 to 1000 ft
800 to 1500m
200 to 500 ft
< 800m
< 200 ft
Symbols :   Thunderstorms  Fog  Heavy snow  Heavy precipitations  Wind > 20 kt
SIGMETs :     Misc.  Thunderstorms  Icing  Turbulence  Mountain Waves  Volcanic Ashes







- Airport Elevation : 374 ft
- IATA code : LIS


LPPT - Lisboa Portela

CURRENT METAR :
  • 251200Z 30006KT 260V350 9999 BKN032 19/11 Q1013

EXPIRED METARs :
  • 251130Z 29006KT 210V360 9999 BKN030 18/10 Q1013
  • 251100Z 34007KT 280V030 9999 BKN028 18/10 Q1014
  • 251030Z 34008KT 310V010 9999 BKN024 16/11 Q1013
  • 251000Z 34009KT 9999 BKN022 16/11 Q1013
  • 250930Z 34010KT 9999 BKN022 16/11 Q1013

TAF TAF LPPT
Valid from the 25 at 12:00 until the 26 at 18:00 UTC


251100Z 2512/2618 34008KT 9999 BKN025
BECMG 2512/2515 31013KT SCT035
BECMG 2521/2524 35008KT 9999 SCT012
BECMG 2609/2612 32013KT SCT035
No reported NOTAMs for that airfield.



MET'MAP, your aeronautical weather chart ! - Copyright ORBIFLY December 2007 - Disclaimer

ORBIFLY MET'MAP TEAM :

Programming & Development : Alexandra Zaïnal
Concept & Development : Baudouin d'Aumeries
Co-Development & Prog : Marc-Olivier Méhu
Technical & hardware support : Manuel Goepfert

Contact : metmap@orbifly.com




SOURCES & CREDITS :

   NOAA